KGCY/GCY METAR and TAF weather

Enter ICAO airport designator
Station Type Date Time Source
KGCY METAR 2020/04/02 00:35 UTC NOAA

KGCY 020035Z AUTO 28003KT 10SM OVC055 08/03 A3001 RMK A01


Station Type Date Time Source
KGCY Decoded METAR 2020/04/02 00:35 UTC NOAA

Station name not available
Apr 01, 2020 - 08:35 PM EDT / 2020.04.02 0035 UTC
Wind: from the W (280 degrees) at 3 MPH (3 KT):0
Visibility: 10 mile(s):0
Sky conditions: overcast
Temperature: 46 F (8 C)
Dew Point: 37 F (3 C)
Relative Humidity: 70%
Pressure (altimeter): 30.01 in. Hg (1016 hPa)
ob: KGCY 020035Z AUTO 28003KT 10SM OVC055 08/03 A3001 RMK A01
cycle: 0

Station Type Date Time Source
KGCY TAF UTC NOAA

Error!

Example: see airport list